Time;durP1;ratioP1;P1;durP2;ratioP2;P2;SDS_P1;SDS_P2;PMS_P1;PMS_P2;Temp;Humidity;BMP_temperature;BMP_pressure;BME280_temperature;BME280_humidity;BME280_pressure;Samples;Min_cycle;Max_cycle;Signal;HPM_P1;HPM_P2
2022/12/27 00:01:48;;;;;;;4.07;2.13;;;5.60;99.90;;;;;;8297903;28;20186;-68
2022/12/27 00:05:50;;;;;;;3.33;1.70;;;5.60;99.90;;;;;;8294864;28;20190;-68
2022/12/27 00:09:52;;;;;;;3.50;1.90;;;5.50;99.90;;;;;;8300539;28;20198;-69
2022/12/27 00:13:53;;;;;;;4.83;2.00;;;5.50;99.90;;;;;;8295711;28;20191;-69
2022/12/27 00:17:54;;;;;;;2.80;2.03;;;5.60;99.90;;;;;;8298856;28;20532;-68
2022/12/27 00:21:55;;;;;;;4.07;2.10;;;5.60;99.90;;;;;;8285391;28;21009;-68
2022/12/27 00:26:01;;;;;;;2.97;1.90;;;5.60;99.90;;;;;;8299879;28;20255;-69
2022/12/27 00:30:03;;;;;;;2.77;2.20;;;5.60;99.90;;;;;;8297323;28;20206;-69
2022/12/27 00:34:06;;;;;;;4.33;2.00;;;5.60;99.90;;;;;;8299033;28;20220;-68
2022/12/27 00:38:07;;;;;;;2.10;1.87;;;5.50;99.90;;;;;;8284751;28;20209;-69
2022/12/27 00:42:07;;;;;;;3.17;2.30;;;5.40;99.90;;;;;;8299264;28;20190;-69
2022/12/27 00:46:09;;;;;;;3.20;2.00;;;5.30;99.90;;;;;;8279132;28;20187;-67
2022/12/27 00:50:09;;;;;;;3.97;1.83;;;5.20;99.90;;;;;;8281695;28;20849;-68
2022/12/27 00:54:10;;;;;;;3.23;1.80;;;5.10;99.90;;;;;;8296376;28;20249;-68
2022/12/27 00:58:11;;;;;;;2.77;1.50;;;5.00;99.90;;;;;;8300263;28;20193;-69
2022/12/27 01:02:12;;;;;;;4.30;1.83;;;5.00;99.90;;;;;;8277477;28;20295;-69
2022/12/27 01:06:16;;;;;;;4.47;1.70;;;4.90;99.90;;;;;;8300823;28;20187;-68
2022/12/27 01:10:17;;;;;;;3.47;1.50;;;4.90;99.90;;;;;;8296993;28;20240;-69
2022/12/27 01:14:17;;;;;;;2.73;1.80;;;4.80;99.90;;;;;;8298660;28;20182;-69
2022/12/27 01:18:18;;;;;;;2.23;1.47;;;4.80;99.90;;;;;;8299033;28;20183;-69
2022/12/27 01:22:19;;;;;;;4.30;1.43;;;4.70;99.90;;;;;;8297636;28;20663;-69
2022/12/27 01:26:21;;;;;;;3.47;1.67;;;4.70;99.90;;;;;;8303871;28;20233;-68
2022/12/27 01:30:22;;;;;;;4.90;2.00;;;4.70;99.90;;;;;;8286397;28;20221;-68
2022/12/27 01:34:23;;;;;;;5.77;1.63;;;4.70;99.90;;;;;;8287864;28;20250;-69
2022/12/27 01:38:24;;;;;;;2.90;1.57;;;4.60;99.90;;;;;;8300791;28;20278;-69
2022/12/27 01:46:44;;;;;;;4.27;1.60;;;4.60;99.90;;;;;;8299301;28;20291;-69
2022/12/27 01:51:01;;;;;;;4.03;1.20;;;4.50;99.90;;;;;;8305327;28;20202;-69
2022/12/27 01:55:14;;;;;;;8.20;1.60;;;4.40;99.90;;;;;;8302079;28;20179;-68
2022/12/27 01:59:15;;;;;;;6.70;1.30;;;4.30;99.90;;;;;;8285210;28;20247;-69
2022/12/27 02:03:25;;;;;;;5.57;1.10;;;4.10;99.90;;;;;;8285955;28;20191;-69
2022/12/27 02:07:37;;;;;;;4.87;1.30;;;4.00;99.90;;;;;;8282973;28;20280;-69
2022/12/27 02:11:50;;;;;;;5.40;1.40;;;3.90;99.90;;;;;;8284435;28;20215;-69
2022/12/27 02:15:50;;;;;;;6.43;1.40;;;3.90;99.90;;;;;;8301781;28;20212;-69
2022/12/27 02:20:21;;;;;;;6.50;1.20;;;3.90;99.90;;;;;;8285576;28;20233;-69
2022/12/27 02:24:50;;;;;;;5.03;0.90;;;3.90;99.90;;;;;;8282298;28;20194;-68
2022/12/27 02:29:01;;;;;;;4.47;1.23;;;3.90;99.90;;;;;;8301620;28;20194;-69
2022/12/27 02:33:15;;;;;;;6.43;1.47;;;3.90;99.90;;;;;;8282134;28;20218;-68
2022/12/27 02:37:58;;;;;;;3.77;1.23;;;3.90;99.90;;;;;;8460432;27;20582;-68
2022/12/27 03:05:14;;;;;;;6.73;1.40;;;3.90;99.90;;;;;;8455521;27;20206;-68
2022/12/27 03:18:48;;;;;;;4.47;1.17;;;3.60;99.90;;;;;;8454060;27;20194;-68
2022/12/27 03:27:17;;;;;;;7.57;1.60;;;3.70;99.90;;;;;;8456424;27;20197;-68
2022/12/27 03:40:38;;;;;;;6.00;1.23;;;3.50;99.90;;;;;;8451006;27;20236;-68
2022/12/27 03:44:39;;;;;;;7.83;1.60;;;3.40;99.90;;;;;;8451326;27;20198;-68
2022/12/27 03:49:10;;;;;;;5.93;1.20;;;3.30;99.90;;;;;;8430074;27;20184;-68
2022/12/27 03:53:20;;;;;;;4.77;1.33;;;3.30;99.90;;;;;;8432701;27;20259;-68
2022/12/27 03:57:23;;;;;;;3.33;1.60;;;3.20;99.90;;;;;;8430883;28;20211;-68
2022/12/27 04:01:24;;;;;;;8.30;1.87;;;3.10;99.90;;;;;;8428480;28;20185;-68
2022/12/27 04:05:25;;;;;;;7.93;1.50;;;3.10;99.90;;;;;;8433347;28;20222;-68
2022/12/27 04:35:20;;;;;;;5.03;1.17;;;3.20;99.90;;;;;;8430593;28;20270;-68
2022/12/27 04:39:21;;;;;;;5.20;1.20;;;3.10;99.90;;;;;;8426972;28;20262;-68
2022/12/27 04:56:42;;;;;;;4.50;1.30;;;2.90;99.90;;;;;;8426063;27;20308;-67
2022/12/27 05:05:03;;;;;;;6.37;1.30;;;2.70;99.90;;;;;;8429864;28;20605;-68
2022/12/27 05:17:42;;;;;;;6.23;1.73;;;2.40;99.90;;;;;;8426507;28;20234;-68
2022/12/27 05:26:03;;;;;;;8.90;1.90;;;2.20;99.90;;;;;;8423385;28;20214;-68
2022/12/27 05:30:05;;;;;;;3.87;1.37;;;2.20;99.90;;;;;;8433453;28;20236;-68
2022/12/27 05:34:06;;;;;;;9.00;1.90;;;2.10;99.90;;;;;;8426181;28;20306;-68
2022/12/27 05:38:07;;;;;;;9.93;1.87;;;2.10;99.90;;;;;;8427814;28;20180;-68
2022/12/27 05:42:08;;;;;;;7.23;2.40;;;2.00;99.90;;;;;;8430691;28;20175;-68
2022/12/27 05:46:14;;;;;;;4.13;1.37;;;2.00;99.90;;;;;;8429703;27;20194;-68
2022/12/27 05:50:15;;;;;;;8.43;1.60;;;1.90;99.90;;;;;;8423271;28;20196;-68
2022/12/27 05:54:15;;;;;;;3.87;1.23;;;1.90;99.90;;;;;;8428058;27;20238;-68
2022/12/27 05:58:16;;;;;;;8.80;1.90;;;1.90;99.90;;;;;;8423267;27;20188;-68
2022/12/27 06:02:17;;;;;;;6.50;1.17;;;1.90;99.90;;;;;;8421423;28;20183;-68
2022/12/27 06:06:18;;;;;;;6.07;1.67;;;1.80;99.90;;;;;;8428582;28;20195;-68
2022/12/27 06:10:18;;;;;;;5.40;1.67;;;1.80;99.90;;;;;;8422754;28;20648;-68
2022/12/27 06:14:19;;;;;;;5.13;1.43;;;1.80;99.90;;;;;;8420676;28;20304;-68
2022/12/27 06:18:20;;;;;;;9.43;1.57;;;1.80;99.90;;;;;;8425147;28;20180;-68
2022/12/27 06:22:21;;;;;;;6.30;1.97;;;1.70;99.90;;;;;;8426037;28;20175;-68
2022/12/27 06:26:27;;;;;;;8.27;2.30;;;1.70;99.90;;;;;;8420824;28;20329;-68
2022/12/27 06:30:28;;;;;;;3.97;1.40;;;1.70;99.90;;;;;;8440314;27;20261;-68
2022/12/27 06:34:29;;;;;;;5.00;1.33;;;1.70;99.90;;;;;;8424326;28;20274;-68
2022/12/27 06:38:29;;;;;;;5.93;1.77;;;1.70;99.90;;;;;;8429648;28;20189;-68
2022/12/27 06:42:30;;;;;;;5.43;1.50;;;1.60;99.90;;;;;;8427454;28;20202;-68
2022/12/27 06:46:31;;;;;;;5.40;1.80;;;1.60;99.90;;;;;;8422461;28;20184;-68
2022/12/27 06:50:32;;;;;;;7.30;1.80;;;1.60;99.90;;;;;;8424352;28;20211;-68
2022/12/27 06:54:33;;;;;;;12.47;2.73;;;1.60;99.90;;;;;;8417798;28;20203;-68
2022/12/27 06:58:34;;;;;;;4.93;1.53;;;1.60;99.90;;;;;;8426206;28;20180;-68
2022/12/27 07:02:36;;;;;;;3.50;1.80;;;1.60;99.90;;;;;;8424264;28;20763;-68
2022/12/27 07:06:37;;;;;;;3.53;1.50;;;1.70;99.90;;;;;;8423266;28;20501;-68
2022/12/27 07:10:38;;;;;;;4.43;1.40;;;1.70;99.90;;;;;;8421389;28;20184;-68
2022/12/27 07:14:39;;;;;;;7.33;2.20;;;1.80;99.90;;;;;;8424287;28;20207;-68
2022/12/27 07:18:40;;;;;;;4.90;1.83;;;1.90;99.90;;;;;;8424355;28;20199;-66
2022/12/27 07:22:41;;;;;;;2.60;1.70;;;2.10;99.90;;;;;;8430372;28;20209;-68
2022/12/27 07:26:41;;;;;;;3.57;1.87;;;2.30;99.90;;;;;;8431662;27;20189;-68
2022/12/27 07:30:42;;;;;;;5.50;2.20;;;2.30;99.90;;;;;;8428427;27;20189;-68
2022/12/27 07:34:43;;;;;;;3.00;1.63;;;2.20;99.90;;;;;;8430978;27;20235;-68
2022/12/27 07:38:44;;;;;;;5.60;1.67;;;2.10;99.90;;;;;;8428710;27;20180;-68
2022/12/27 07:42:45;;;;;;;5.83;1.80;;;2.20;99.90;;;;;;8432073;27;20188;-68
2022/12/27 07:46:46;;;;;;;7.27;2.10;;;2.20;99.90;;;;;;8430558;27;20192;-69
2022/12/27 07:50:57;;;;;;;3.87;1.77;;;2.40;99.90;;;;;;8428055;28;20180;-70
2022/12/27 07:54:58;;;;;;;6.63;1.90;;;2.50;99.90;;;;;;8419692;27;20208;-72
2022/12/27 07:59:00;;;;;;;2.97;1.40;;;2.50;99.90;;;;;;8429112;27;20278;-71
2022/12/27 08:03:02;;;;;;;3.43;1.70;;;2.60;99.90;;;;;;8421485;27;20180;-69
2022/12/27 08:07:12;;;;;;;7.07;1.70;;;2.70;99.90;;;;;;8427363;27;20202;-70
2022/12/27 08:11:13;;;;;;;3.33;1.40;;;2.70;99.90;;;;;;8429935;27;20185;-70
2022/12/27 08:15:14;;;;;;;3.57;1.40;;;2.70;99.90;;;;;;8423463;27;20208;-70
2022/12/27 08:19:14;;;;;;;9.07;1.63;;;2.80;99.90;;;;;;8424830;28;20188;-70
2022/12/27 08:23:16;;;;;;;3.03;1.47;;;2.80;99.90;;;;;;8431941;27;20188;-69
2022/12/27 08:27:24;;;;;;;3.80;1.50;;;2.90;99.90;;;;;;8426965;28;20188;-67
2022/12/27 08:31:24;;;;;;;3.43;1.73;;;3.10;99.90;;;;;;8425732;27;20253;-70
2022/12/27 08:35:25;;;;;;;5.77;1.23;;;3.20;99.90;;;;;;8425421;28;20340;-69
2022/12/27 08:39:26;;;;;;;4.87;1.40;;;3.50;88.10;;;;;;8428710;27;20179;-69
2022/12/27 08:43:30;;;;;;;8.70;2.00;;;3.70;36.30;;;;;;8431571;27;20187;-70
2022/12/27 08:47:31;;;;;;;4.93;1.57;;;3.80;1.00;;;;;;8428746;27;20181;-69
2022/12/27 08:51:32;;;;;;;4.00;1.30;;;3.90;99.90;;;;;;8434450;28;20279;-69
2022/12/27 08:55:33;;;;;;;6.23;1.20;;;4.00;1.00;;;;;;8421441;28;20231;-70
2022/12/27 08:59:34;;;;;;;4.13;1.73;;;4.00;99.90;;;;;;8430561;27;20225;-70
2022/12/27 09:03:35;;;;;;;2.40;1.30;;;4.10;99.90;;;;;;8426997;27;20180;-69
2022/12/27 09:07:35;;;;;;;4.90;1.50;;;4.20;99.90;;;;;;8423148;27;20191;-69
2022/12/27 09:11:37;;;;;;;5.10;1.07;;;4.10;99.90;;;;;;8430409;27;20188;-70
2022/12/27 09:15:45;;;;;;;2.60;0.97;;;4.10;99.90;;;;;;8424467;28;20200;-70
2022/12/27 09:19:45;;;;;;;1.53;1.00;;;4.10;99.90;;;;;;8422594;28;20208;-69
2022/12/27 09:23:47;;;;;;;2.40;1.40;;;4.30;99.90;;;;;;8425110;28;20191;-70
2022/12/27 09:27:48;;;;;;;1.67;0.90;;;4.70;99.90;;;;;;8425104;28;20192;-69
2022/12/27 09:31:49;;;;;;;1.83;0.90;;;4.90;1.00;;;;;;8426562;27;20248;-70
2022/12/27 09:35:50;;;;;;;3.37;1.07;;;5.10;1.00;;;;;;8436128;27;20459;-69
2022/12/27 09:39:51;;;;;;;4.50;1.37;;;5.30;1.00;;;;;;8419692;28;20180;-71
2022/12/27 09:44:16;;;;;;;4.03;1.17;;;5.40;1.00;;;;;;8421493;27;20180;-72
2022/12/27 09:48:25;;;;;;;3.73;1.20;;;5.30;1.00;;;;;;8427818;27;20180;-69
2022/12/27 09:53:06;;;;;;;3.97;1.30;;;5.20;1.00;;;;;;8425716;27;20267;-69
2022/12/27 09:57:16;;;;;;;4.60;1.13;;;5.10;1.00;;;;;;8426165;27;20234;-69
2022/12/27 10:01:34;;;;;;;2.97;1.27;;;5.00;1.00;;;;;;8421686;28;20180;-69
2022/12/27 10:05:38;;;;;;;1.87;1.00;;;5.00;1.00;;;;;;8427710;27;20603;-69
2022/12/27 10:10:10;;;;;;;1.50;0.90;;;5.10;1.00;;;;;;8424121;27;20192;-69
2022/12/27 10:14:32;;;;;;;2.30;1.10;;;5.20;1.00;;;;;;8425525;28;20190;-69
2022/12/27 10:18:39;;;;;;;2.87;1.30;;;5.30;1.00;;;;;;8424199;27;20184;-68
2022/12/27 10:22:57;;;;;;;3.03;1.10;;;5.20;1.00;;;;;;8425147;28;20274;-69
2022/12/27 10:26:58;;;;;;;2.97;1.40;;;5.10;1.00;;;;;;8424044;28;20272;-68
2022/12/27 10:31:02;;;;;;;2.63;1.07;;;5.10;1.00;;;;;;8425526;28;20193;-68
2022/12/27 10:35:04;;;;;;;2.97;0.93;;;5.00;1.00;;;;;;8424691;28;20640;-68
2022/12/27 10:39:27;;;;;;;7.20;1.50;;;5.20;1.00;;;;;;8425091;28;20195;-69
2022/12/27 10:43:38;;;;;;;2.70;1.07;;;5.60;1.00;;;;;;8422506;28;20465;-70
2022/12/27 10:47:38;;;;;;;2.37;1.00;;;5.90;1.00;;;;;;8425549;28;20181;-71
2022/12/27 10:51:41;;;;;;;3.63;1.20;;;6.20;1.00;;;;;;8425534;28;20189;-70
2022/12/27 10:55:42;;;;;;;3.43;1.17;;;6.40;99.90;;;;;;8429590;28;20211;-71
2022/12/27 10:59:43;;;;;;;2.87;1.20;;;6.20;99.90;;;;;;8438943;27;20194;-69
2022/12/27 11:03:43;;;;;;;2.50;1.40;;;6.10;99.90;;;;;;8431160;27;20190;-70
2022/12/27 11:07:44;;;;;;;4.87;1.43;;;6.10;99.90;;;;;;8434540;27;20203;-69
2022/12/27 11:11:45;;;;;;;3.47;1.27;;;6.10;99.90;;;;;;8440415;28;20275;-69
2022/12/27 11:15:56;;;;;;;1.73;0.93;;;6.10;99.90;;;;;;8435040;27;20299;-70
2022/12/27 11:19:58;;;;;;;2.43;1.60;;;6.00;99.90;;;;;;8430359;27;20188;-69
2022/12/27 11:24:01;;;;;;;3.27;1.10;;;6.00;99.90;;;;;;8436122;28;20252;-69
2022/12/27 11:28:27;;;;;;;5.20;1.37;;;6.00;99.90;;;;;;8440178;28;20200;-69
2022/12/27 11:32:27;;;;;;;3.53;1.50;;;5.90;99.90;;;;;;8428990;28;20210;-69
2022/12/27 11:36:36;;;;;;;3.53;1.20;;;5.90;99.90;;;;;;8438233;27;20638;-70
2022/12/27 11:40:36;;;;;;;3.33;1.20;;;5.90;99.90;;;;;;8430855;27;20281;-69
2022/12/27 11:44:42;;;;;;;2.73;1.30;;;5.90;99.90;;;;;;8437601;28;20196;-70
2022/12/27 11:48:45;;;;;;;2.50;1.13;;;5.90;99.90;;;;;;8428551;28;20196;-69
2022/12/27 11:53:10;;;;;;;3.00;1.40;;;5.80;1.00;;;;;;8425025;27;20180;-70
2022/12/27 11:57:30;;;;;;;3.47;1.17;;;5.80;99.90;;;;;;8426704;27;20298;-69
2022/12/27 12:01:58;;;;;;;3.53;1.10;;;5.80;99.90;;;;;;8437060;28;20189;-68
2022/12/27 12:06:29;;;;;;;1.50;1.03;;;5.90;99.90;;;;;;8432419;27;20219;-68
2022/12/27 12:10:42;;;;;;;2.23;1.37;;;6.00;99.90;;;;;;8438941;27;20192;-69
2022/12/27 12:14:43;;;;;;;3.60;1.37;;;5.90;1.00;;;;;;8437252;28;20204;-68
2022/12/27 12:18:50;;;;;;;2.00;1.33;;;5.90;1.00;;;;;;8434389;28;20209;-68
2022/12/27 12:23:15;;;;;;;2.27;1.50;;;5.90;1.00;;;;;;8427824;28;20199;-69
2022/12/27 12:27:27;;;;;;;3.33;1.30;;;5.80;1.00;;;;;;8429602;28;20225;-70
2022/12/27 12:31:33;;;;;;;5.33;1.47;;;5.80;1.00;;;;;;8433349;28;20356;-69
2022/12/27 12:36:12;;;;;;;3.13;1.40;;;5.80;1.00;;;;;;8429587;28;20212;-69
2022/12/27 12:40:28;;;;;;;4.30;1.47;;;5.80;1.00;;;;;;8431113;28;20190;-69
2022/12/27 12:44:44;;;;;;;2.63;1.07;;;5.90;1.00;;;;;;8432913;27;20225;-69
2022/12/27 12:49:05;;;;;;;3.23;1.40;;;5.90;99.90;;;;;;8428949;28;20280;-68
2022/12/27 12:53:06;;;;;;;3.40;1.27;;;5.90;1.00;;;;;;8444060;27;20198;-67
2022/12/27 12:57:22;;;;;;;1.47;1.00;;;5.90;1.00;;;;;;8430828;28;20213;-69
2022/12/27 13:02:02;;;;;;;4.20;1.40;;;6.10;99.90;;;;;;8431062;27;20192;-69
2022/12/27 13:06:11;;;;;;;5.13;1.20;;;6.00;1.00;;;;;;8432545;27;20277;-69
2022/12/27 13:10:43;;;;;;;5.30;1.60;;;5.90;1.00;;;;;;8431041;28;20274;-70
2022/12/27 13:15:24;;;;;;;1.70;1.07;;;5.90;1.00;;;;;;8425201;27;20216;-69
2022/12/27 13:19:51;;;;;;;5.30;1.37;;;5.80;1.00;;;;;;8424937;28;20347;-68
2022/12/27 13:24:19;;;;;;;3.00;1.23;;;5.80;1.00;;;;;;8429965;27;20207;-70
2022/12/27 13:28:30;;;;;;;1.70;0.93;;;5.90;1.00;;;;;;8424749;28;20262;-69
2022/12/27 13:32:43;;;;;;;4.67;1.30;;;5.80;1.00;;;;;;8427494;28;20203;-70
2022/12/27 13:37:19;;;;;;;4.13;1.33;;;5.80;1.00;;;;;;8427119;28;20216;-69
2022/12/27 13:41:45;;;;;;;2.87;1.20;;;5.70;1.00;;;;;;8423772;28;20180;-70
2022/12/27 13:46:10;;;;;;;2.33;1.40;;;5.70;1.00;;;;;;8427254;28;20195;-69
2022/12/27 13:50:23;;;;;;;2.80;1.50;;;5.70;1.00;;;;;;8425646;27;20720;-69
2022/12/27 13:54:52;;;;;;;3.60;1.30;;;5.60;1.00;;;;;;8429080;27;20185;-69
2022/12/27 13:59:11;;;;;;;2.40;1.20;;;5.50;1.00;;;;;;8441016;27;20188;-70
2022/12/27 14:03:33;;;;;;;3.13;1.30;;;5.50;1.00;;;;;;8426286;28;20187;-69
2022/12/27 14:07:46;;;;;;;4.13;1.57;;;5.40;1.00;;;;;;8425972;28;20188;-69
2022/12/27 14:12:18;;;;;;;4.17;1.50;;;5.40;1.00;;;;;;8425757;28;20192;-70
2022/12/27 14:16:56;;;;;;;4.00;1.30;;;5.40;1.00;;;;;;8436467;27;20261;-69
2022/12/27 14:21:19;;;;;;;2.83;1.10;;;5.30;1.00;;;;;;8430993;28;20200;-68
2022/12/27 14:25:41;;;;;;;2.60;1.03;;;5.20;1.00;;;;;;8430866;28;20211;-69
2022/12/27 14:30:10;;;;;;;2.17;1.13;;;5.10;1.00;;;;;;8427080;28;20233;-69
2022/12/27 14:34:30;;;;;;;5.30;1.20;;;5.10;1.00;;;;;;8418758;28;20219;-68
2022/12/27 14:38:48;;;;;;;4.93;1.23;;;5.00;1.00;;;;;;8432729;27;20188;-69
2022/12/27 14:43:14;;;;;;;1.83;1.40;;;5.00;1.00;;;;;;8423663;28;20187;-69
2022/12/27 14:47:23;;;;;;;3.57;1.30;;;4.90;1.00;;;;;;8430886;28;20202;-69
2022/12/27 14:52:03;;;;;;;3.60;1.30;;;4.70;1.00;;;;;;8424033;28;20200;-69
2022/12/27 14:56:23;;;;;;;3.10;1.27;;;4.60;10.60;;;;;;8417546;28;20283;-69
2022/12/27 15:00:27;;;;;;;2.00;1.00;;;4.40;32.90;;;;;;8420208;28;20219;-70
2022/12/27 15:04:49;;;;;;;2.90;1.30;;;4.20;99.90;;;;;;8419986;28;20241;-69
2022/12/27 15:09:12;;;;;;;4.13;1.20;;;4.10;99.90;;;;;;8428260;28;20336;-69
2022/12/27 15:13:29;;;;;;;3.00;1.30;;;4.00;99.90;;;;;;8430832;28;20211;-70
2022/12/27 15:17:33;;;;;;;5.10;1.40;;;3.80;99.90;;;;;;8435643;27;20211;-68
2022/12/27 15:21:48;;;;;;;1.30;1.20;;;3.70;99.90;;;;;;8425411;28;20184;-68
2022/12/27 15:26:10;;;;;;;3.07;1.83;;;3.50;1.00;;;;;;8417891;28;20189;-67
2022/12/27 15:30:37;;;;;;;2.30;1.30;;;3.50;33.20;;;;;;8420982;28;20188;-67
2022/12/27 15:34:51;;;;;;;4.17;1.63;;;3.30;99.90;;;;;;8422398;28;20701;-67
2022/12/27 15:38:52;;;;;;;3.67;1.53;;;3.20;99.90;;;;;;8420889;28;20185;-67
2022/12/27 15:43:21;;;;;;;4.50;1.90;;;3.10;99.90;;;;;;8427815;28;20239;-67
2022/12/27 15:47:24;;;;;;;3.50;2.20;;;3.00;1.00;;;;;;8433655;28;20194;-66
2022/12/27 15:51:53;;;;;;;4.30;2.30;;;2.90;99.90;;;;;;8433582;27;20199;-66
2022/12/27 15:56:29;;;;;;;4.03;1.70;;;2.80;99.90;;;;;;8425301;27;20487;-67
2022/12/27 16:00:32;;;;;;;6.20;2.17;;;2.70;33.50;;;;;;8334033;28;20387;-68
2022/12/27 16:05:01;;;;;;;2.87;1.93;;;2.60;1.00;;;;;;8423630;28;20195;-67
2022/12/27 16:09:19;;;;;;;6.30;2.50;;;2.60;99.90;;;;;;8435150;27;20640;-67
2022/12/27 16:13:26;;;;;;;3.07;1.90;;;2.60;1.00;;;;;;8424414;27;20175;-67
2022/12/27 16:17:46;;;;;;;5.23;2.13;;;2.50;99.90;;;;;;8424687;27;20214;-67
2022/12/27 16:21:48;;;;;;;4.97;2.13;;;2.40;99.90;;;;;;8429041;28;20189;-68
2022/12/27 16:26:02;;;;;;;5.23;2.37;;;2.40;99.90;;;;;;8426035;28;20233;-67
2022/12/27 16:30:04;;;;;;;5.13;1.83;;;2.50;1.00;;;;;;8426533;27;20206;-67
2022/12/27 16:34:30;;;;;;;3.43;2.17;;;2.60;99.90;;;;;;8426324;28;20315;-68
2022/12/27 16:38:33;;;;;;;2.70;1.77;;;2.60;99.90;;;;;;8443829;27;20184;-67
2022/12/27 16:42:55;;;;;;;2.80;2.10;;;2.60;1.00;;;;;;8427235;27;20186;-67
2022/12/27 16:47:15;;;;;;;3.97;1.90;;;2.50;1.00;;;;;;8429092;28;20190;-68
2022/12/27 16:51:39;;;;;;;2.80;2.00;;;2.50;99.90;;;;;;8425594;28;20279;-67
2022/12/27 16:56:02;;;;;;;5.20;2.13;;;2.30;17.80;;;;;;8426528;28;20211;-67
2022/12/27 17:00:33;;;;;;;3.23;2.13;;;2.20;99.90;;;;;;8429849;28;20175;-66
2022/12/27 17:04:50;;;;;;;3.23;2.27;;;2.20;99.90;;;;;;8423638;28;20508;-67
2022/12/27 17:09:10;;;;;;;4.10;2.40;;;2.10;91.40;;;;;;8415894;27;20257;-67
2022/12/27 17:13:26;;;;;;;3.43;2.03;;;2.10;44.50;;;;;;8421472;27;20279;-67
2022/12/27 17:17:28;;;;;;;3.47;2.20;;;2.10;99.90;;;;;;8428467;28;20204;-67
2022/12/27 17:21:40;;;;;;;3.93;2.17;;;2.00;1.00;;;;;;8426390;27;20175;-68
2022/12/27 17:25:51;;;;;;;3.13;2.23;;;2.00;1.00;;;;;;8422501;28;20181;-67
2022/12/27 17:30:21;;;;;;;4.10;2.33;;;1.90;1.00;;;;;;8424614;28;20188;-67
2022/12/27 17:34:40;;;;;;;5.87;2.43;;;1.90;1.00;;;;;;8428190;28;20476;-67
2022/12/27 17:39:06;;;;;;;4.30;2.20;;;1.90;99.90;;;;;;8425972;28;20208;-66
2022/12/27 17:48:01;;;;;;;3.40;2.50;;;1.90;99.90;;;;;;8425972;28;20200;-67
2022/12/27 18:00:57;;;;;;;4.63;2.37;;;1.70;1.00;;;;;;8424016;28;20786;-67
2022/12/27 18:05:06;;;;;;;7.20;3.47;;;1.60;1.00;;;;;;8422668;28;20211;-67
2022/12/27 18:09:10;;;;;;;9.07;3.23;;;1.60;28.80;;;;;;8421853;28;20266;-67
2022/12/27 18:13:19;;;;;;;6.73;3.23;;;1.50;99.90;;;;;;8426056;28;20259;-67
2022/12/27 18:17:25;;;;;;;5.70;3.50;;;1.50;99.90;;;;;;8420049;28;20249;-66
2022/12/27 18:21:28;;;;;;;6.93;4.17;;;1.50;99.90;;;;;;8434682;27;20207;-67
2022/12/27 18:25:29;;;;;;;9.13;4.27;;;1.50;99.90;;;;;;8419213;28;20193;-68
2022/12/27 18:29:31;;;;;;;11.60;5.40;;;1.70;99.90;;;;;;8422504;28;20477;-68
2022/12/27 18:34:03;;;;;;;10.63;5.53;;;1.80;99.90;;;;;;8423768;28;20258;-68
2022/12/27 18:38:06;;;;;;;11.00;5.47;;;1.90;99.90;;;;;;8423784;28;20207;-68
2022/12/27 18:42:19;;;;;;;11.57;6.40;;;1.90;1.00;;;;;;8425932;28;20282;-67
2022/12/27 18:46:37;;;;;;;12.27;5.37;;;2.00;1.00;;;;;;8423323;28;20206;-68
2022/12/27 18:50:47;;;;;;;9.13;6.03;;;2.10;99.90;;;;;;8426175;28;20184;-68
2022/12/27 18:54:48;;;;;;;10.23;6.37;;;2.10;99.90;;;;;;8428102;28;20232;-68
2022/12/27 18:59:11;;;;;;;12.03;5.27;;;2.30;99.90;;;;;;8424939;28;20191;-68
2022/12/27 19:03:15;;;;;;;12.10;5.23;;;2.40;1.00;;;;;;8422261;28;20203;-68
2022/12/27 19:07:16;;;;;;;10.93;5.03;;;2.60;1.00;;;;;;8421690;28;20197;-68
2022/12/27 19:11:25;;;;;;;11.17;5.70;;;2.70;99.90;;;;;;8427321;28;20270;-68
2022/12/27 19:15:28;;;;;;;11.03;5.90;;;2.80;99.90;;;;;;8424904;28;20200;-69
2022/12/27 19:19:30;;;;;;;7.83;4.87;;;2.80;99.90;;;;;;8424557;28;20194;-69
2022/12/27 19:23:35;;;;;;;13.13;5.87;;;2.80;99.90;;;;;;8431806;28;20214;-69
2022/12/27 19:27:36;;;;;;;8.77;4.87;;;2.70;1.00;;;;;;8429143;28;20192;-68
2022/12/27 19:31:40;;;;;;;10.63;5.40;;;2.70;1.00;;;;;;8433779;27;20302;-68
2022/12/27 19:35:42;;;;;;;10.50;5.40;;;2.70;99.90;;;;;;8433502;27;20233;-69
2022/12/27 19:39:46;;;;;;;9.33;5.00;;;2.60;99.90;;;;;;8431643;27;21113;-69
2022/12/27 19:43:47;;;;;;;8.43;4.63;;;2.60;99.90;;;;;;8429215;28;20210;-69
2022/12/27 19:47:49;;;;;;;9.43;4.87;;;2.60;99.90;;;;;;8420332;27;20189;-69
2022/12/27 19:51:53;;;;;;;9.13;5.03;;;2.70;99.90;;;;;;8429057;27;20232;-68
2022/12/27 19:55:54;;;;;;;7.87;5.07;;;2.70;1.00;;;;;;8425980;28;20210;-69
2022/12/27 19:59:55;;;;;;;8.63;4.20;;;2.80;99.90;;;;;;8426968;27;20196;-68
2022/12/27 20:03:56;;;;;;;8.37;4.53;;;2.90;1.00;;;;;;8420520;27;20191;-69
2022/12/27 20:07:57;;;;;;;7.33;4.57;;;3.00;99.90;;;;;;8419692;28;20191;-69
2022/12/27 20:11:58;;;;;;;9.60;5.87;;;3.00;99.90;;;;;;8426286;27;20361;-69
2022/12/27 20:16:00;;;;;;;13.07;5.13;;;2.90;99.90;;;;;;8423167;27;20224;-69
2022/12/27 20:20:01;;;;;;;10.13;5.03;;;2.90;99.90;;;;;;8429531;27;20192;-69
2022/12/27 20:24:03;;;;;;;10.53;5.03;;;2.80;1.00;;;;;;8427181;28;20276;-68
2022/12/27 20:28:04;;;;;;;8.20;4.63;;;2.80;1.00;;;;;;8427498;27;20199;-68
2022/12/27 20:32:05;;;;;;;7.90;4.13;;;2.80;99.90;;;;;;8427997;27;20191;-68
2022/12/27 20:36:07;;;;;;;8.63;4.70;;;2.70;85.30;;;;;;8430025;28;20216;-68
2022/12/27 20:40:10;;;;;;;8.60;4.40;;;2.60;72.80;;;;;;8424957;27;20186;-68
2022/12/27 20:44:13;;;;;;;6.23;3.33;;;2.60;34.30;;;;;;8428097;28;20175;-68
2022/12/27 20:48:14;;;;;;;6.57;3.60;;;2.50;1.00;;;;;;8430362;27;20180;-68
2022/12/27 20:52:15;;;;;;;6.10;3.60;;;2.50;1.00;;;;;;8438790;28;20188;-69
2022/12/27 20:56:16;;;;;;;5.00;2.90;;;2.40;1.00;;;;;;8431457;27;20205;-69
2022/12/27 21:00:17;;;;;;;5.40;3.03;;;2.30;1.00;;;;;;8433280;27;20188;-69
2022/12/27 21:04:18;;;;;;;6.80;3.20;;;2.30;1.00;;;;;;8430448;28;20772;-69
2022/12/27 21:08:19;;;;;;;5.07;3.07;;;2.20;69.70;;;;;;8430361;27;20183;-68
2022/12/27 21:12:20;;;;;;;3.83;2.77;;;2.20;99.90;;;;;;8428955;28;20215;-68
2022/12/27 21:16:23;;;;;;;3.90;2.83;;;2.10;99.90;;;;;;8430232;27;20239;-69
2022/12/27 21:20:24;;;;;;;5.80;2.90;;;2.00;99.90;;;;;;8429425;27;20180;-68
2022/12/27 21:24:25;;;;;;;5.13;2.93;;;1.90;99.90;;;;;;8419093;28;20188;-68
2022/12/27 21:28:26;;;;;;;4.77;2.83;;;1.80;99.90;;;;;;8434101;27;20627;-68
2022/12/27 21:32:27;;;;;;;4.67;2.80;;;1.70;99.90;;;;;;8432587;28;20218;-69
2022/12/27 21:36:30;;;;;;;6.87;2.80;;;1.60;1.00;;;;;;8429905;27;20292;-69
2022/12/27 21:40:31;;;;;;;6.17;3.33;;;1.60;1.00;;;;;;8423958;27;20209;-69
2022/12/27 21:44:34;;;;;;;6.07;3.47;;;1.60;99.90;;;;;;8427739;28;20188;-69
2022/12/27 21:48:36;;;;;;;6.87;3.20;;;1.60;99.90;;;;;;8430462;27;20184;-68
2022/12/27 21:52:37;;;;;;;7.30;3.00;;;1.50;99.90;;;;;;8424885;28;20734;-69
2022/12/27 21:56:39;;;;;;;5.97;3.00;;;1.40;30.60;;;;;;8427082;27;20223;-69
2022/12/27 22:00:40;;;;;;;5.27;2.90;;;1.30;35.40;;;;;;8432547;27;20180;-68
2022/12/27 22:04:41;;;;;;;4.27;3.03;;;1.20;92.70;;;;;;8424386;27;20212;-69
2022/12/27 22:08:43;;;;;;;5.50;3.27;;;1.10;99.90;;;;;;8431520;28;20194;-69
2022/12/27 22:12:44;;;;;;;7.77;3.20;;;1.00;99.90;;;;;;8428244;27;20176;-69
2022/12/27 22:16:45;;;;;;;5.40;3.53;;;1.00;1.00;;;;;;8420473;28;20199;-69
2022/12/27 22:20:45;;;;;;;5.63;3.40;;;1.00;1.00;;;;;;8427669;27;20191;-68
2022/12/27 22:24:46;;;;;;;7.13;3.43;;;1.00;99.90;;;;;;8427017;28;20187;-69
2022/12/27 22:28:48;;;;;;;5.40;3.33;;;0.90;1.00;;;;;;8425284;28;20732;-69
2022/12/27 22:32:48;;;;;;;5.00;3.23;;;0.90;1.00;;;;;;8423872;28;20330;-69
2022/12/27 22:36:50;;;;;;;7.47;3.37;;;0.90;30.80;;;;;;8422255;28;20282;-69
2022/12/27 22:40:51;;;;;;;10.37;4.00;;;1.00;1.00;;;;;;8426912;28;20191;-68
2022/12/27 22:44:52;;;;;;;5.20;3.33;;;1.00;1.00;;;;;;8426740;28;20198;-69
2022/12/27 22:48:59;;;;;;;8.00;3.93;;;1.10;99.90;;;;;;8431099;28;20237;-68
2022/12/27 22:53:00;;;;;;;4.27;3.23;;;1.00;99.90;;;;;;8434450;28;20188;-69
2022/12/27 22:57:01;;;;;;;8.13;3.43;;;1.00;99.90;;;;;;8428595;28;20218;-69
2022/12/27 23:01:01;;;;;;;6.30;3.63;;;1.10;99.90;;;;;;8434198;28;20180;-69
2022/12/27 23:05:03;;;;;;;5.50;3.50;;;1.10;99.90;;;;;;8428058;28;20589;-69
2022/12/27 23:09:04;;;;;;;7.23;3.50;;;1.20;99.90;;;;;;8426705;28;20589;-69
2022/12/27 23:13:05;;;;;;;8.60;4.13;;;1.20;25.30;;;;;;8432789;27;20180;-69
2022/12/27 23:17:06;;;;;;;8.47;3.83;;;1.30;45.40;;;;;;8430093;27;20223;-68
2022/12/27 23:21:10;;;;;;;8.63;4.40;;;1.30;18.10;;;;;;8433813;27;20179;-69
2022/12/27 23:25:11;;;;;;;6.47;3.13;;;1.20;1.00;;;;;;8433827;27;20181;-68
2022/12/27 23:29:13;;;;;;;5.73;3.30;;;1.30;1.00;;;;;;8433399;27;20257;-69
2022/12/27 23:33:14;;;;;;;6.93;2.93;;;1.30;1.00;;;;;;8434486;28;20211;-69
2022/12/27 23:37:15;;;;;;;3.73;2.53;;;1.40;1.00;;;;;;8431797;27;20250;-69
2022/12/27 23:41:19;;;;;;;3.03;2.50;;;1.50;99.90;;;;;;8436175;28;20250;-68
2022/12/27 23:45:20;;;;;;;5.00;2.50;;;1.60;99.90;;;;;;8427912;28;20192;-69
2022/12/27 23:49:21;;;;;;;4.67;2.80;;;1.70;1.00;;;;;;8431107;28;20290;-69
2022/12/27 23:53:22;;;;;;;5.17;2.90;;;1.70;1.00;;;;;;8432708;28;20188;-69